Time;durP1;ratioP1;P1;durP2;ratioP2;P2;SDS_P1;SDS_P2;PMS_P1;PMS_P2;Temp;Humidity;BMP_temperature;BMP_pressure;BME280_temperature;BME280_humidity;BME280_pressure;Samples;Min_cycle;Max_cycle;Signal;HPM_P1;HPM_P2
2022/08/25 00:01:48;;;;;;;;;;;27.30;93.70;;;;;;5087632;28;19908;-57
2022/08/25 00:04:16;;;;;;;;;;;27.30;93.70;;;;;;5087229;28;20191;-58
2022/08/25 00:06:43;;;;;;;;;;;27.30;93.80;;;;;;5095758;28;20196;-58
2022/08/25 00:09:10;;;;;;;;;;;27.20;93.80;;;;;;5107618;28;19908;-56
2022/08/25 00:11:37;;;;;;;;;;;27.30;93.90;;;;;;5107539;28;19954;-55
2022/08/25 00:14:06;;;;;;;;;;;27.30;93.90;;;;;;5106967;28;20195;-57
2022/08/25 00:16:32;;;;;;;;;;;27.20;94.00;;;;;;5107552;28;19964;-54
2022/08/25 00:19:01;;;;;;;;;;;27.10;94.10;;;;;;5106772;28;19957;-56
2022/08/25 00:21:30;;;;;;;;;;;27.20;94.10;;;;;;5107488;28;19949;-56
2022/08/25 00:23:57;;;;;;;;;;;27.10;94.10;;;;;;5107296;28;19979;-54
2022/08/25 00:26:23;;;;;;;;;;;27.20;94.20;;;;;;5107056;28;19919;-55
2022/08/25 00:28:49;;;;;;;;;;;27.20;94.10;;;;;;5107177;28;20139;-53
2022/08/25 00:31:17;;;;;;;;;;;27.20;94.10;;;;;;5106865;28;19916;-56
2022/08/25 00:33:46;;;;;;;;;;;27.20;94.10;;;;;;5107238;28;20096;-55
2022/08/25 00:36:13;;;;;;;;;;;27.20;94.10;;;;;;5107162;28;20196;-56
2022/08/25 00:38:41;;;;;;;;;;;27.20;94.10;;;;;;5107065;28;19904;-56
2022/08/25 00:41:09;;;;;;;;;;;27.20;94.00;;;;;;5107453;28;19916;-56
2022/08/25 00:43:44;;;;;;;;;;;27.20;94.10;;;;;;5107174;28;19908;-55
2022/08/25 00:46:11;;;;;;;;;;;27.10;94.20;;;;;;5106269;28;20081;-56
2022/08/25 00:48:38;;;;;;;;;;;27.10;94.20;;;;;;5106812;28;19978;-56
2022/08/25 00:51:06;;;;;;;;;;;27.10;94.20;;;;;;5107284;28;19912;-55
2022/08/25 00:53:32;;;;;;;;;;;27.10;94.40;;;;;;5106772;28;19916;-57
2022/08/25 00:55:58;;;;;;;;;;;27.10;94.60;;;;;;5107061;28;19919;-56
2022/08/25 00:58:26;;;;;;;;;;;27.00;94.70;;;;;;5105983;28;19978;-57
2022/08/25 01:00:54;;;;;;;;;;;27.00;94.90;;;;;;5106663;28;19919;-56
2022/08/25 01:03:22;;;;;;;;;;;27.00;95.10;;;;;;5106529;28;19908;-55
2022/08/25 01:05:49;;;;;;;;;;;27.00;95.00;;;;;;5107077;28;19916;-56
2022/08/25 01:08:20;;;;;;;;;;;27.00;95.20;;;;;;5106570;28;19915;-58
2022/08/25 01:10:47;;;;;;;;;;;27.00;95.20;;;;;;5107028;28;19917;-56
2022/08/25 01:13:23;;;;;;;;;;;27.00;95.40;;;;;;5106221;28;19916;-55
2022/08/25 01:15:52;;;;;;;;;;;27.00;95.40;;;;;;5106408;28;19978;-57
2022/08/25 01:18:18;;;;;;;;;;;26.90;95.50;;;;;;5104263;28;20235;-58
2022/08/25 01:20:48;;;;;;;;;;;26.90;95.50;;;;;;5100844;28;19912;-55
2022/08/25 01:23:14;;;;;;;;;;;27.00;95.50;;;;;;5094152;28;20074;-56
2022/08/25 01:25:52;;;;;;;;;;;27.00;95.50;;;;;;5100513;28;20180;-56
2022/08/25 01:28:19;;;;;;;;;;;27.00;95.50;;;;;;5106157;28;20194;-57
2022/08/25 01:30:45;;;;;;;;;;;27.00;95.50;;;;;;5105626;28;19927;-55
2022/08/25 01:33:13;;;;;;;;;;;27.00;95.50;;;;;;5105764;28;20108;-56
2022/08/25 01:35:39;;;;;;;;;;;27.00;95.40;;;;;;5100961;28;19920;-56
2022/08/25 01:38:06;;;;;;;;;;;27.00;95.30;;;;;;5106030;28;20288;-57
2022/08/25 01:40:33;;;;;;;;;;;27.00;95.20;;;;;;5105901;28;19908;-55
2022/08/25 01:43:05;;;;;;;;;;;27.00;95.20;;;;;;5105590;28;19915;-55
2022/08/25 01:45:36;;;;;;;;;;;27.00;95.20;;;;;;5105999;28;19916;-55
2022/08/25 01:48:02;;;;;;;;;;;27.00;95.20;;;;;;5105765;28;19908;-56
2022/08/25 01:50:28;;;;;;;;;;;27.00;95.20;;;;;;5105907;28;19915;-58
2022/08/25 01:52:58;;;;;;;;;;;27.00;95.30;;;;;;5105191;28;19914;-57
2022/08/25 01:55:24;;;;;;;;;;;27.00;95.30;;;;;;5105187;28;20136;-54
2022/08/25 01:57:50;;;;;;;;;;;27.00;95.20;;;;;;5103639;28;20163;-57
2022/08/25 02:00:17;;;;;;;;;;;27.00;95.10;;;;;;5104760;28;19994;-55
2022/08/25 02:02:43;;;;;;;;;;;27.10;95.00;;;;;;5103918;28;19908;-57
2022/08/25 02:05:12;;;;;;;;;;;27.10;94.90;;;;;;5104969;28;19916;-55
2022/08/25 02:07:38;;;;;;;;;;;27.10;94.80;;;;;;5105032;28;19908;-53
2022/08/25 02:10:05;;;;;;;;;;;27.20;94.70;;;;;;5104304;28;20184;-54
2022/08/25 02:12:32;;;;;;;;;;;27.20;94.60;;;;;;5103339;28;19987;-54
2022/08/25 02:14:59;;;;;;;;;;;27.20;94.50;;;;;;5103291;28;20218;-53
2022/08/25 02:17:26;;;;;;;;;;;27.20;94.30;;;;;;5103519;28;20000;-56
2022/08/25 02:19:52;;;;;;;;;;;27.20;94.40;;;;;;5104308;28;19983;-53
2022/08/25 02:22:18;;;;;;;;;;;27.20;94.30;;;;;;5104461;28;19904;-56
2022/08/25 02:24:44;;;;;;;;;;;27.30;94.30;;;;;;5105262;28;19938;-55
2022/08/25 02:27:10;;;;;;;;;;;27.30;94.30;;;;;;5104861;28;19949;-53
2022/08/25 02:29:37;;;;;;;;;;;27.30;94.40;;;;;;5104910;28;19987;-54
2022/08/25 02:32:03;;;;;;;;;;;27.30;94.40;;;;;;5103877;28;19915;-54
2022/08/25 02:34:29;;;;;;;;;;;27.30;94.30;;;;;;5104475;28;19931;-58
2022/08/25 02:36:55;;;;;;;;;;;27.20;94.30;;;;;;5104757;28;19954;-53
2022/08/25 02:39:22;;;;;;;;;;;27.30;94.40;;;;;;5105115;28;20226;-55
2022/08/25 02:41:48;;;;;;;;;;;27.20;94.50;;;;;;5104679;28;19908;-55
2022/08/25 02:44:14;;;;;;;;;;;27.30;94.60;;;;;;5104802;28;19912;-57
2022/08/25 02:46:40;;;;;;;;;;;27.20;94.50;;;;;;5104554;28;19904;-56
2022/08/25 02:49:06;;;;;;;;;;;27.30;94.50;;;;;;5104635;28;19915;-57
2022/08/25 02:51:33;;;;;;;;;;;27.30;94.60;;;;;;5104640;28;19917;-54
2022/08/25 02:54:02;;;;;;;;;;;27.20;94.60;;;;;;5104462;28;19915;-53
2022/08/25 02:56:28;;;;;;;;;;;27.30;94.60;;;;;;5104670;28;19908;-52
2022/08/25 02:58:54;;;;;;;;;;;27.30;94.60;;;;;;5104434;28;19910;-55
2022/08/25 03:01:20;;;;;;;;;;;27.30;94.60;;;;;;5104748;28;20099;-56
2022/08/25 03:03:47;;;;;;;;;;;27.30;94.80;;;;;;5104527;28;19908;-54
2022/08/25 03:06:15;;;;;;;;;;;27.20;94.90;;;;;;5104185;28;19924;-55
2022/08/25 03:08:42;;;;;;;;;;;27.20;94.80;;;;;;5104486;28;19915;-55
2022/08/25 03:11:09;;;;;;;;;;;27.20;94.80;;;;;;5104954;28;19908;-58
2022/08/25 03:13:36;;;;;;;;;;;27.20;94.90;;;;;;5104070;28;19916;-57
2022/08/25 03:16:03;;;;;;;;;;;27.20;94.80;;;;;;5104926;28;19912;-55
2022/08/25 03:18:29;;;;;;;;;;;27.20;94.90;;;;;;5104436;28;19905;-57
2022/08/25 03:20:55;;;;;;;;;;;27.20;94.90;;;;;;5103696;28;19995;-56
2022/08/25 03:23:21;;;;;;;;;;;27.20;94.90;;;;;;5104385;28;19912;-54
2022/08/25 03:28:32;;;;;;;;;;;27.20;94.90;;;;;;5104196;28;19987;-54
2022/08/25 03:30:59;;;;;;;;;;;27.20;95.00;;;;;;5104666;28;20193;-53
2022/08/25 03:33:29;;;;;;;;;;;27.20;95.10;;;;;;5104164;28;20105;-54
2022/08/25 03:35:55;;;;;;;;;;;27.20;95.30;;;;;;5104568;28;19915;-55
2022/08/25 03:38:22;;;;;;;;;;;27.20;95.30;;;;;;5104176;28;19908;-54
2022/08/25 03:40:48;;;;;;;;;;;27.20;95.30;;;;;;5104477;28;19912;-55
2022/08/25 03:43:14;;;;;;;;;;;27.10;95.40;;;;;;5103923;28;19904;-55
2022/08/25 03:45:42;;;;;;;;;;;27.10;95.20;;;;;;5104563;28;19912;-53
2022/08/25 03:48:08;;;;;;;;;;;27.10;95.20;;;;;;5104187;28;19979;-55
2022/08/25 03:50:34;;;;;;;;;;;27.10;95.30;;;;;;5104327;28;19919;-52
2022/08/25 03:53:00;;;;;;;;;;;27.10;95.20;;;;;;5104004;28;19911;-54
2022/08/25 03:55:26;;;;;;;;;;;27.10;95.20;;;;;;5104369;28;19912;-52
2022/08/25 03:57:54;;;;;;;;;;;27.10;95.10;;;;;;5104160;28;19931;-55
2022/08/25 04:00:22;;;;;;;;;;;27.10;95.20;;;;;;5103776;28;19912;-53
2022/08/25 04:02:48;;;;;;;;;;;27.00;95.20;;;;;;5103961;28;19904;-53
2022/08/25 04:05:14;;;;;;;;;;;27.00;95.00;;;;;;5104107;28;19987;-52
2022/08/25 04:07:40;;;;;;;;;;;27.00;94.90;;;;;;5103865;28;19909;-54
2022/08/25 04:10:08;;;;;;;;;;;27.00;94.80;;;;;;5104165;28;19985;-54
2022/08/25 04:12:35;;;;;;;;;;;27.00;94.90;;;;;;5103596;28;19983;-55
2022/08/25 04:15:03;;;;;;;;;;;27.00;94.80;;;;;;5103916;28;19919;-55
2022/08/25 04:17:29;;;;;;;;;;;26.90;94.70;;;;;;5103957;28;19904;-55
2022/08/25 04:19:56;;;;;;;;;;;26.90;94.70;;;;;;5103958;28;20259;-57
2022/08/25 04:22:22;;;;;;;;;;;26.90;94.60;;;;;;5103744;28;20143;-55
2022/08/25 04:24:48;;;;;;;;;;;26.90;94.60;;;;;;5103835;28;19989;-53
2022/08/25 04:27:15;;;;;;;;;;;26.90;94.60;;;;;;5103643;28;19958;-54
2022/08/25 04:29:41;;;;;;;;;;;26.90;94.60;;;;;;5104033;28;20197;-54
2022/08/25 04:32:07;;;;;;;;;;;26.90;94.50;;;;;;5104175;28;19908;-54
2022/08/25 04:34:35;;;;;;;;;;;26.90;94.50;;;;;;5107489;28;19940;-53
2022/08/25 04:37:02;;;;;;;;;;;26.90;94.50;;;;;;5107153;28;19958;-53
2022/08/25 04:39:28;;;;;;;;;;;26.80;94.50;;;;;;5107252;28;20192;-56
2022/08/25 04:41:54;;;;;;;;;;;26.80;94.40;;;;;;5107206;28;19915;-57
2022/08/25 04:44:21;;;;;;;;;;;26.80;94.30;;;;;;5106905;28;19991;-58
2022/08/25 04:46:48;;;;;;;;;;;26.80;94.20;;;;;;5107202;28;19989;-54
2022/08/25 04:49:14;;;;;;;;;;;26.80;94.10;;;;;;5107035;28;19912;-54
2022/08/25 04:51:41;;;;;;;;;;;26.80;94.10;;;;;;5106851;28;19911;-52
2022/08/25 04:54:10;;;;;;;;;;;26.80;94.00;;;;;;5107065;28;19943;-55
2022/08/25 04:56:38;;;;;;;;;;;26.80;94.10;;;;;;5106925;28;19908;-56
2022/08/25 04:59:06;;;;;;;;;;;26.80;94.20;;;;;;5106793;28;19967;-55
2022/08/25 05:01:32;;;;;;;;;;;26.80;94.20;;;;;;5106710;28;19908;-53
2022/08/25 05:03:59;;;;;;;;;;;26.80;94.20;;;;;;5106793;28;19904;-56
2022/08/25 05:06:25;;;;;;;;;;;26.80;94.30;;;;;;5106651;28;20200;-55
2022/08/25 05:08:52;;;;;;;;;;;26.80;94.50;;;;;;5106514;28;19908;-55
2022/08/25 05:11:19;;;;;;;;;;;26.70;94.30;;;;;;5106714;28;20271;-59
2022/08/25 05:13:46;;;;;;;;;;;26.70;94.40;;;;;;5106243;28;20196;-53
2022/08/25 05:16:13;;;;;;;;;;;26.70;94.40;;;;;;5106741;28;19912;-53
2022/08/25 05:18:40;;;;;;;;;;;26.70;94.40;;;;;;5106533;28;19932;-54
2022/08/25 05:21:10;;;;;;;;;;;26.70;94.30;;;;;;5106845;28;19919;-55
2022/08/25 05:23:36;;;;;;;;;;;26.70;94.40;;;;;;5106557;28;19908;-54
2022/08/25 05:26:22;;;;;;;;;;;26.70;94.40;;;;;;5106776;28;19916;-52
2022/08/25 05:28:49;;;;;;;;;;;26.70;94.50;;;;;;5105746;28;19904;-55
2022/08/25 05:31:16;;;;;;;;;;;26.70;94.40;;;;;;5106273;28;19915;-60
2022/08/25 05:33:43;;;;;;;;;;;26.60;94.40;;;;;;5106081;28;19904;-55
2022/08/25 05:36:10;;;;;;;;;;;26.70;94.40;;;;;;5106700;28;20184;-55
2022/08/25 05:38:37;;;;;;;;;;;26.60;94.30;;;;;;5106078;28;19943;-55
2022/08/25 05:41:04;;;;;;;;;;;26.60;94.30;;;;;;5106427;28;19940;-56
2022/08/25 05:43:31;;;;;;;;;;;26.60;94.20;;;;;;5105688;28;19908;-57
2022/08/25 05:45:58;;;;;;;;;;;26.60;94.20;;;;;;5106340;28;19919;-58
2022/08/25 05:48:25;;;;;;;;;;;26.60;94.10;;;;;;5105798;28;19904;-53
2022/08/25 05:50:52;;;;;;;;;;;26.60;94.10;;;;;;5106258;28;20145;-53
2022/08/25 05:53:18;;;;;;;;;;;26.60;94.00;;;;;;5105954;28;19911;-54
2022/08/25 05:55:45;;;;;;;;;;;26.60;94.00;;;;;;5106068;28;19958;-59
2022/08/25 05:58:11;;;;;;;;;;;26.60;93.90;;;;;;5105737;28;19908;-56
2022/08/25 06:00:37;;;;;;;;;;;26.60;93.70;;;;;;5106108;28;19938;-53
2022/08/25 06:03:04;;;;;;;;;;;26.50;93.50;;;;;;5105529;28;19954;-54
2022/08/25 06:05:31;;;;;;;;;;;26.50;93.30;;;;;;5097340;28;19917;-56
2022/08/25 06:07:57;;;;;;;;;;;26.50;93.40;;;;;;5101030;28;19930;-55
2022/08/25 06:10:24;;;;;;;;;;;26.50;93.40;;;;;;5105753;28;19912;-60
2022/08/25 06:12:50;;;;;;;;;;;26.50;93.30;;;;;;5105367;28;19923;-56
2022/08/25 06:15:18;;;;;;;;;;;26.50;93.30;;;;;;5105861;28;20069;-56
2022/08/25 06:17:45;;;;;;;;;;;26.40;93.40;;;;;;5105361;28;19943;-56
2022/08/25 06:20:12;;;;;;;;;;;26.40;93.40;;;;;;5104556;28;19920;-56
2022/08/25 06:22:39;;;;;;;;;;;26.50;93.30;;;;;;5095715;28;19911;-48
2022/08/25 06:25:06;;;;;;;;;;;26.40;93.60;;;;;;5084926;28;19958;-54
2022/08/25 06:27:33;;;;;;;;;;;26.40;93.40;;;;;;5092570;28;19919;-56
2022/08/25 06:30:03;;;;;;;;;;;26.40;93.40;;;;;;5105176;28;19912;-53
2022/08/25 06:32:34;;;;;;;;;;;26.40;93.40;;;;;;5097864;28;19908;-54
2022/08/25 06:35:01;;;;;;;;;;;26.30;93.30;;;;;;5083963;28;19916;-54
2022/08/25 06:37:27;;;;;;;;;;;26.30;93.50;;;;;;5083082;28;19909;-57
2022/08/25 06:39:54;;;;;;;;;;;26.30;93.40;;;;;;5083124;28;20014;-53
2022/08/25 06:42:20;;;;;;;;;;;26.30;93.50;;;;;;5082967;28;20292;-54
2022/08/25 06:44:46;;;;;;;;;;;26.30;93.60;;;;;;5082972;28;19983;-57
2022/08/25 06:47:14;;;;;;;;;;;26.30;93.60;;;;;;5082844;28;19947;-56
2022/08/25 06:49:44;;;;;;;;;;;26.30;93.60;;;;;;5082968;28;19912;-50
2022/08/25 06:52:10;;;;;;;;;;;26.30;93.70;;;;;;5084496;28;19904;-55
2022/08/25 06:54:37;;;;;;;;;;;26.30;93.70;;;;;;5084132;28;19912;-57
2022/08/25 06:57:04;;;;;;;;;;;26.30;93.60;;;;;;5084330;28;19965;-53
2022/08/25 06:59:31;;;;;;;;;;;26.30;93.60;;;;;;5084236;28;19983;-50
2022/08/25 07:01:58;;;;;;;;;;;26.30;93.70;;;;;;5083790;28;19916;-49
2022/08/25 07:04:24;;;;;;;;;;;26.30;93.60;;;;;;5084247;28;19916;-47
2022/08/25 07:06:50;;;;;;;;;;;26.30;93.60;;;;;;5084392;28;19944;-47
2022/08/25 07:09:16;;;;;;;;;;;26.30;93.70;;;;;;5084367;28;19919;-50
2022/08/25 07:11:43;;;;;;;;;;;26.20;93.70;;;;;;5084235;28;19908;-53
2022/08/25 07:14:11;;;;;;;;;;;26.20;93.70;;;;;;5084095;28;19920;-54
2022/08/25 07:16:38;;;;;;;;;;;26.30;93.70;;;;;;5084156;28;19904;-61
2022/08/25 07:19:05;;;;;;;;;;;26.20;93.60;;;;;;5084443;28;19909;-57
2022/08/25 07:21:32;;;;;;;;;;;26.20;93.60;;;;;;5084133;28;19919;-57
2022/08/25 07:23:59;;;;;;;;;;;26.20;93.70;;;;;;5084055;28;19909;-52
2022/08/25 07:26:26;;;;;;;;;;;26.20;93.60;;;;;;5083788;28;19912;-56
2022/08/25 07:28:53;;;;;;;;;;;26.20;93.70;;;;;;5083933;28;20101;-52
2022/08/25 07:31:19;;;;;;;;;;;26.10;93.70;;;;;;5084187;28;19909;-57
2022/08/25 07:36:30;;;;;;;;;;;26.20;93.80;;;;;;5084119;28;20172;-58
2022/08/25 07:38:57;;;;;;;;;;;26.10;93.70;;;;;;5083899;28;19983;-54
2022/08/25 07:41:24;;;;;;;;;;;26.10;93.70;;;;;;5083849;28;20104;-55
2022/08/25 07:43:50;;;;;;;;;;;26.10;93.70;;;;;;5083859;28;20209;-52
2022/08/25 07:46:16;;;;;;;;;;;26.10;93.70;;;;;;5083730;28;19912;-58
2022/08/25 07:48:42;;;;;;;;;;;26.10;93.60;;;;;;5084115;28;19947;-51
2022/08/25 07:51:09;;;;;;;;;;;26.10;93.70;;;;;;5084383;28;19958;-51
2022/08/25 07:53:36;;;;;;;;;;;26.10;93.70;;;;;;5083806;28;19954;-54
2022/08/25 07:56:02;;;;;;;;;;;26.10;93.60;;;;;;5084323;28;19946;-49
2022/08/25 07:58:28;;;;;;;;;;;26.10;93.60;;;;;;5083929;28;20258;-50
2022/08/25 08:00:55;;;;;;;;;;;26.10;93.70;;;;;;5084098;28;19913;-49
2022/08/25 08:03:21;;;;;;;;;;;26.10;93.80;;;;;;5083828;28;20208;-53
2022/08/25 08:05:47;;;;;;;;;;;26.10;93.70;;;;;;5083976;28;19988;-54
2022/08/25 08:08:13;;;;;;;;;;;26.10;93.70;;;;;;5087749;28;20189;-54
2022/08/25 08:10:40;;;;;;;;;;;26.10;93.70;;;;;;5087812;28;19916;-56
2022/08/25 08:13:07;;;;;;;;;;;26.10;93.80;;;;;;5087259;28;20117;-55
2022/08/25 08:15:33;;;;;;;;;;;26.10;93.80;;;;;;5087769;28;19920;-55
2022/08/25 08:18:00;;;;;;;;;;;26.10;93.80;;;;;;5087254;28;19909;-54
2022/08/25 08:20:27;;;;;;;;;;;26.10;93.90;;;;;;5087474;28;19916;-56
2022/08/25 08:22:54;;;;;;;;;;;26.10;93.90;;;;;;5087213;28;19908;-54
2022/08/25 08:25:21;;;;;;;;;;;26.10;93.90;;;;;;5087395;28;20033;-57
2022/08/25 08:27:47;;;;;;;;;;;26.10;93.90;;;;;;5087232;28;20108;-58
2022/08/25 08:30:13;;;;;;;;;;;26.00;93.90;;;;;;5087437;28;19912;-58
2022/08/25 08:32:40;;;;;;;;;;;26.10;93.90;;;;;;5087016;28;19909;-60
2022/08/25 08:35:06;;;;;;;;;;;26.10;93.90;;;;;;5087226;28;19913;-55
2022/08/25 08:37:32;;;;;;;;;;;26.00;93.90;;;;;;5087893;28;19904;-50
2022/08/25 08:40:00;;;;;;;;;;;26.10;93.90;;;;;;5096045;28;19916;-58
2022/08/25 08:42:26;;;;;;;;;;;26.00;93.90;;;;;;5097623;28;19908;-53
2022/08/25 08:44:52;;;;;;;;;;;26.00;93.90;;;;;;5086882;28;19916;-55
2022/08/25 08:47:26;;;;;;;;;;;26.00;93.90;;;;;;5102026;28;19950;-54
2022/08/25 08:50:11;;;;;;;;;;;26.10;94.00;;;;;;5107343;28;20234;-55
2022/08/25 08:53:03;;;;;;;;;;;26.00;93.90;;;;;;5106988;28;19939;-53
2022/08/25 08:55:31;;;;;;;;;;;26.00;93.80;;;;;;5103632;28;19954;-57
2022/08/25 08:57:59;;;;;;;;;;;26.00;93.80;;;;;;5106826;28;19908;-56
2022/08/25 09:00:26;;;;;;;;;;;26.00;93.90;;;;;;5106781;28;19912;-58
2022/08/25 09:03:00;;;;;;;;;;;26.00;94.00;;;;;;5106796;28;19908;-56
2022/08/25 09:05:27;;;;;;;;;;;26.00;94.00;;;;;;5107009;28;19924;-57
2022/08/25 09:07:55;;;;;;;;;;;26.00;94.00;;;;;;5106650;28;20085;-51
2022/08/25 09:10:23;;;;;;;;;;;26.00;94.10;;;;;;5106933;28;20091;-56
2022/08/25 09:12:58;;;;;;;;;;;26.00;94.00;;;;;;5106452;28;19916;-52
2022/08/25 09:15:24;;;;;;;;;;;26.00;94.10;;;;;;5106930;28;20175;-56
2022/08/25 09:17:53;;;;;;;;;;;26.00;94.10;;;;;;5105655;28;19908;-54
2022/08/25 09:20:40;;;;;;;;;;;25.90;94.10;;;;;;5106651;28;19919;-61
2022/08/25 09:23:14;;;;;;;;;;;26.00;94.20;;;;;;5106410;28;19954;-56
2022/08/25 09:25:52;;;;;;;;;;;26.00;94.20;;;;;;5106891;28;19916;-54
2022/08/25 09:28:20;;;;;;;;;;;26.00;94.20;;;;;;5106216;28;19908;-54
2022/08/25 09:30:56;;;;;;;;;;;25.90;94.20;;;;;;5106588;28;20148;-55
2022/08/25 09:33:24;;;;;;;;;;;25.90;94.20;;;;;;5106311;28;19915;-55
2022/08/25 09:35:51;;;;;;;;;;;25.90;94.20;;;;;;5106499;28;20104;-52
2022/08/25 09:38:18;;;;;;;;;;;25.90;94.10;;;;;;5106290;28;19911;-55
2022/08/25 09:40:47;;;;;;;;;;;25.90;94.10;;;;;;5106498;28;19912;-54
2022/08/25 09:43:25;;;;;;;;;;;25.90;94.10;;;;;;5105895;28;19908;-55
2022/08/25 09:46:10;;;;;;;;;;;25.90;94.10;;;;;;5106245;28;20192;-58
2022/08/25 09:48:55;;;;;;;;;;;25.90;94.10;;;;;;5106127;28;19908;-51
2022/08/25 09:51:32;;;;;;;;;;;25.90;94.10;;;;;;5105953;28;19950;-61
2022/08/25 09:54:15;;;;;;;;;;;25.90;94.20;;;;;;5105836;28;19908;-55
2022/08/25 09:56:52;;;;;;;;;;;25.90;94.20;;;;;;5105636;28;19908;-57
2022/08/25 09:59:25;;;;;;;;;;;25.90;94.20;;;;;;5105645;28;19983;-58
2022/08/25 10:01:56;;;;;;;;;;;25.90;94.20;;;;;;5105438;28;19908;-52
2022/08/25 10:04:26;;;;;;;;;;;25.90;94.20;;;;;;5105607;28;20180;-57
2022/08/25 10:06:53;;;;;;;;;;;25.90;94.20;;;;;;5105629;28;19912;-55
2022/08/25 10:09:26;;;;;;;;;;;25.90;94.30;;;;;;5105389;28;19919;-56
2022/08/25 10:11:53;;;;;;;;;;;25.90;94.30;;;;;;5105579;28;19989;-55
2022/08/25 10:14:26;;;;;;;;;;;25.90;94.30;;;;;;5104328;28;19927;-58
2022/08/25 10:17:10;;;;;;;;;;;25.90;94.30;;;;;;5105181;28;19970;-53
2022/08/25 10:19:36;;;;;;;;;;;25.90;94.30;;;;;;5105508;28;20301;-57
2022/08/25 10:22:10;;;;;;;;;;;25.90;94.30;;;;;;5105070;28;20145;-53
2022/08/25 10:24:36;;;;;;;;;;;25.90;94.40;;;;;;5105460;28;20092;-52
2022/08/25 10:27:26;;;;;;;;;;;25.90;94.40;;;;;;5105217;28;19908;-57
2022/08/25 10:30:07;;;;;;;;;;;25.90;94.40;;;;;;5104459;28;19912;-54
2022/08/25 10:32:43;;;;;;;;;;;25.80;94.40;;;;;;5105076;28;19945;-56
2022/08/25 10:35:12;;;;;;;;;;;25.90;94.50;;;;;;5105240;28;19912;-56
2022/08/25 10:37:57;;;;;;;;;;;25.90;94.50;;;;;;5105027;28;20211;-54
2022/08/25 10:40:35;;;;;;;;;;;25.90;94.60;;;;;;5105357;28;19920;-58
2022/08/25 10:43:06;;;;;;;;;;;25.90;94.60;;;;;;5104968;28;19904;-57
2022/08/25 10:45:46;;;;;;;;;;;25.90;94.60;;;;;;5105069;28;19916;-57
2022/08/25 10:48:31;;;;;;;;;;;25.90;94.60;;;;;;5104712;28;19927;-57
2022/08/25 10:51:02;;;;;;;;;;;25.90;94.70;;;;;;5105110;28;19943;-56
2022/08/25 10:53:47;;;;;;;;;;;25.90;94.70;;;;;;5104867;28;19911;-57
2022/08/25 10:56:20;;;;;;;;;;;25.90;94.70;;;;;;5104735;28;20196;-54
2022/08/25 10:58:49;;;;;;;;;;;25.90;94.70;;;;;;5104505;28;19904;-48
2022/08/25 11:01:30;;;;;;;;;;;25.90;94.80;;;;;;5104472;28;19935;-55
2022/08/25 11:04:13;;;;;;;;;;;25.90;94.80;;;;;;5104613;28;19904;-60
2022/08/25 11:06:39;;;;;;;;;;;25.80;94.80;;;;;;5104414;28;19919;-56
2022/08/25 11:09:08;;;;;;;;;;;25.90;94.90;;;;;;5104315;28;20258;-55
2022/08/25 11:11:39;;;;;;;;;;;25.90;95.10;;;;;;5104248;28;19908;-54
2022/08/25 11:14:08;;;;;;;;;;;25.90;95.00;;;;;;5104307;28;19961;-59
2022/08/25 11:16:54;;;;;;;;;;;25.90;95.00;;;;;;5104549;28;20001;-53
2022/08/25 11:19:25;;;;;;;;;;;25.80;95.10;;;;;;5104694;28;20041;-55
2022/08/25 11:22:03;;;;;;;;;;;25.80;95.00;;;;;;5104210;28;19908;-55
2022/08/25 11:24:41;;;;;;;;;;;25.80;95.10;;;;;;5104343;28;19919;-56
2022/08/25 11:27:12;;;;;;;;;;;25.80;95.10;;;;;;5104195;28;20186;-55
2022/08/25 11:29:40;;;;;;;;;;;25.80;95.10;;;;;;5104303;28;20188;-54
2022/08/25 11:32:06;;;;;;;;;;;25.80;95.10;;;;;;5104236;28;19912;-53
2022/08/25 11:34:34;;;;;;;;;;;25.80;95.10;;;;;;5104279;28;19938;-54
2022/08/25 11:37:06;;;;;;;;;;;25.80;95.10;;;;;;5104219;28;19923;-56
2022/08/25 11:39:35;;;;;;;;;;;25.80;95.10;;;;;;5104254;28;19912;-58
2022/08/25 11:42:14;;;;;;;;;;;25.80;95.10;;;;;;5106167;28;19943;-58
2022/08/25 11:44:58;;;;;;;;;;;25.80;95.20;;;;;;5108402;28;20078;-59
2022/08/25 11:47:27;;;;;;;;;;;25.80;95.20;;;;;;5108060;28;19915;-54
2022/08/25 11:49:58;;;;;;;;;;;25.80;95.30;;;;;;5108519;28;19957;-55
2022/08/25 11:52:30;;;;;;;;;;;25.80;95.30;;;;;;5108245;28;19983;-56
2022/08/25 11:55:15;;;;;;;;;;;25.70;95.40;;;;;;5108366;28;19919;-56
2022/08/25 11:57:42;;;;;;;;;;;25.70;95.40;;;;;;5107975;28;19908;-56
2022/08/25 12:00:27;;;;;;;;;;;25.70;95.40;;;;;;5108208;28;19947;-57
2022/08/25 12:02:53;;;;;;;;;;;25.80;95.50;;;;;;5108079;28;19904;-54
2022/08/25 12:05:20;;;;;;;;;;;25.70;95.40;;;;;;5108124;28;19922;-56
2022/08/25 12:07:47;;;;;;;;;;;25.80;95.50;;;;;;5108169;28;19979;-56
2022/08/25 12:10:17;;;;;;;;;;;25.80;95.50;;;;;;5108241;28;19912;-54
2022/08/25 12:12:43;;;;;;;;;;;25.70;95.60;;;;;;5107553;28;19922;-54
2022/08/25 12:15:28;;;;;;;;;;;25.70;95.70;;;;;;5108095;28;19912;-55
2022/08/25 12:18:15;;;;;;;;;;;25.70;95.70;;;;;;5107469;28;20152;-55
2022/08/25 12:21:07;;;;;;;;;;;25.70;95.70;;;;;;5108163;28;19919;-57
2022/08/25 12:23:44;;;;;;;;;;;25.70;95.70;;;;;;5103927;28;19908;-55
2022/08/25 12:26:30;;;;;;;;;;;25.70;95.70;;;;;;5107851;28;19969;-54
2022/08/25 12:29:01;;;;;;;;;;;25.70;95.70;;;;;;5107236;28;19916;-56
2022/08/25 12:31:43;;;;;;;;;;;25.70;95.70;;;;;;5107361;28;19908;-58
2022/08/25 12:34:09;;;;;;;;;;;25.70;95.70;;;;;;5107350;28;20025;-54
2022/08/25 12:36:35;;;;;;;;;;;25.70;95.70;;;;;;5107516;28;19915;-54
2022/08/25 12:39:27;;;;;;;;;;;25.80;95.70;;;;;;5107224;28;20193;-54
2022/08/25 12:42:16;;;;;;;;;;;25.70;95.70;;;;;;5103372;28;20215;-54
2022/08/25 12:44:45;;;;;;;;;;;25.80;95.60;;;;;;5107237;28;19919;-55
2022/08/25 12:47:28;;;;;;;;;;;25.80;95.60;;;;;;5106874;28;19918;-58
2022/08/25 12:50:14;;;;;;;;;;;25.80;95.60;;;;;;5107270;28;19939;-53
2022/08/25 12:52:41;;;;;;;;;;;25.80;95.60;;;;;;5092068;28;19908;-60
2022/08/25 12:55:10;;;;;;;;;;;25.80;95.60;;;;;;5107032;28;19940;-54
2022/08/25 12:57:39;;;;;;;;;;;25.80;95.60;;;;;;5106930;28;19981;-54
2022/08/25 13:00:26;;;;;;;;;;;25.80;95.70;;;;;;5106871;28;20101;-56
2022/08/25 13:03:00;;;;;;;;;;;25.80;95.80;;;;;;5106435;28;19953;-55
2022/08/25 13:05:35;;;;;;;;;;;25.80;95.80;;;;;;5107176;28;19920;-55
2022/08/25 13:08:04;;;;;;;;;;;25.80;95.80;;;;;;5106889;28;19946;-55
2022/08/25 13:10:56;;;;;;;;;;;25.70;95.80;;;;;;5106915;28;19943;-55
2022/08/25 13:13:41;;;;;;;;;;;25.70;95.90;;;;;;5102714;28;19916;-55
2022/08/25 13:16:14;;;;;;;;;;;25.70;95.90;;;;;;5106857;28;19916;-55
2022/08/25 13:18:40;;;;;;;;;;;25.70;96.00;;;;;;5106549;28;19969;-54
2022/08/25 13:21:22;;;;;;;;;;;25.70;96.10;;;;;;5106823;28;19916;-55
2022/08/25 13:23:50;;;;;;;;;;;25.70;96.10;;;;;;5106404;28;19908;-53
2022/08/25 13:26:42;;;;;;;;;;;25.70;96.10;;;;;;5106249;28;19912;-57
2022/08/25 13:29:09;;;;;;;;;;;25.70;96.10;;;;;;5102282;28;19912;-57
2022/08/25 13:31:38;;;;;;;;;;;25.80;96.20;;;;;;5106052;28;19908;-56
2022/08/25 13:34:05;;;;;;;;;;;25.80;96.20;;;;;;5106036;28;19976;-54
2022/08/25 13:39:21;;;;;;;;;;;25.70;96.30;;;;;;5106293;28;20091;-54
2022/08/25 13:41:49;;;;;;;;;;;25.80;96.30;;;;;;5106044;28;19945;-55
2022/08/25 13:44:16;;;;;;;;;;;25.80;96.30;;;;;;5105814;28;19912;-54
2022/08/25 13:46:44;;;;;;;;;;;25.70;96.20;;;;;;5106211;28;19979;-53
2022/08/25 13:49:10;;;;;;;;;;;25.80;96.20;;;;;;5105960;28;19983;-55
2022/08/25 13:51:37;;;;;;;;;;;25.80;96.20;;;;;;5105791;28;19912;-55
2022/08/25 13:54:08;;;;;;;;;;;25.80;96.20;;;;;;5105951;28;20220;-53
2022/08/25 13:56:36;;;;;;;;;;;25.80;96.10;;;;;;5105890;28;19908;-54
2022/08/25 13:59:04;;;;;;;;;;;25.80;96.10;;;;;;5106220;28;19973;-55
2022/08/25 14:01:32;;;;;;;;;;;25.80;96.00;;;;;;5105559;28;20004;-55
2022/08/25 14:04:30;;;;;;;;;;;25.80;96.00;;;;;;5105559;28;19908;-57
2022/08/25 14:07:08;;;;;;;;;;;25.80;96.00;;;;;;5089783;28;20142;-53
2022/08/25 14:09:39;;;;;;;;;;;25.80;96.00;;;;;;5105550;28;19912;-56
2022/08/25 14:12:06;;;;;;;;;;;25.80;96.00;;;;;;5105653;28;20208;-54
2022/08/25 14:14:33;;;;;;;;;;;25.80;96.00;;;;;;5105369;28;19916;-55
2022/08/25 14:17:00;;;;;;;;;;;25.90;96.00;;;;;;5105457;28;19908;-54
2022/08/25 14:19:26;;;;;;;;;;;25.90;96.00;;;;;;5105640;28;19919;-56
2022/08/25 14:21:58;;;;;;;;;;;25.90;96.00;;;;;;5100097;28;20221;-54
2022/08/25 14:24:25;;;;;;;;;;;25.90;96.10;;;;;;5087129;28;19909;-53
2022/08/25 14:26:52;;;;;;;;;;;25.90;96.10;;;;;;5085044;28;19917;-53
2022/08/25 14:29:19;;;;;;;;;;;25.90;96.10;;;;;;5092183;28;19950;-54
2022/08/25 14:31:45;;;;;;;;;;;25.90;96.10;;;;;;5103409;28;19919;-55
2022/08/25 14:34:20;;;;;;;;;;;25.90;96.10;;;;;;5095027;28;19909;-54
2022/08/25 14:36:47;;;;;;;;;;;25.90;96.00;;;;;;5084823;28;19972;-52
2022/08/25 14:39:13;;;;;;;;;;;25.90;96.00;;;;;;5088218;28;19916;-56